KGUP

Gallup Municipal Airport

Gallup, New Mexico, USA
KGUP 261144Z 2612/2712 VRB04KT P6SM FEW250 FM261600 34010KT P6SM SCT250 FM270200 VRB04KT P6SM SKC
Issued Valid From Valid To
Apr-26 @ 11:44 UTC
(2 hours ago)
Apr-26 @ 12:00 UTC
(2 hours ago)
Apr-27 @ 12:00 UTC
(in 22 hours)
Apr-26 @ 12:00 to Apr-26 @ 16:00
KGUP 261144Z 2612/2712 VRB04KT P6SM FEW250
Wind Visibility Clouds
Variable at 4 knots Greater than 6 miles
  • Few at 25,000' AGL
From Apr-26 @ 16:00 to Apr-27 @ 02:00
FM261600 34010KT P6SM SCT250
Wind Visibility Clouds
340° at 10 knots Greater than 6 miles
  • Scattered at 25,000' AGL
From Apr-27 @ 02:00 to Apr-27 @ 12:00
FM270200 VRB04KT P6SM SKC
Wind Visibility Clouds
Variable at 4 knots Greater than 6 miles
  • Clear skies
KGUP 261144Z 2612/2712 VRB04KT P6SM FEW250 FM261600 34010KT P6SM SCT250 FM270200 VRB04KT P6SM SKC
Issued Apr-26 @ 11:44 UTC
(2 hours ago)
Valid From Apr-26 @ 12:00 UTC
(2 hours ago)
Valid To Apr-27 @ 12:00 UTC
(in 22 hours)
Apr-26 @ 12:00 - Apr-26 @ 16:00
Wind Visibility
Variable at 4 knots Greater than 6 miles
Clouds
  • Few at 25,000' AGL
From Apr-26 @ 16:00 - Apr-27 @ 02:00
Wind Visibility
340° at 10 knots Greater than 6 miles
Clouds
  • Scattered at 25,000' AGL
From Apr-27 @ 02:00 - Apr-27 @ 12:00
Wind Visibility
Variable at 4 knots Greater than 6 miles
Clouds
  • Clear skies